sensor_id;sensor_type;location;lat;lon;timestamp;pressure;altitude;pressure_sealevel;temperature;humidity
68859;BME280;55864;49.238;8.092;2023-03-18T00:00:32;98944.63;;;10.92;55.17
68859;BME280;55864;49.238;8.092;2023-03-18T00:02:33;98944.41;;;10.78;56.07
68859;BME280;55864;49.238;8.092;2023-03-18T00:04:33;98947.19;;;10.76;56.56
68859;BME280;55864;49.238;8.092;2023-03-18T00:06:35;98950.31;;;10.80;56.03
68859;BME280;55864;49.238;8.092;2023-03-18T00:08:38;98946.88;;;10.79;56.71
68859;BME280;55864;49.238;8.092;2023-03-18T00:10:38;98948.25;;;10.66;57.20
68859;BME280;55864;49.238;8.092;2023-03-18T00:12:40;98946.75;;;10.37;58.58
68859;BME280;55864;49.238;8.092;2023-03-18T00:14:40;98943.63;;;10.34;58.59
68859;BME280;55864;49.238;8.092;2023-03-18T00:16:41;98952.88;;;10.20;59.22
68859;BME280;55864;49.238;8.092;2023-03-18T00:18:41;98952.53;;;10.41;57.91
68859;BME280;55864;49.238;8.092;2023-03-18T00:20:42;98958.06;;;10.56;57.30
68859;BME280;55864;49.238;8.092;2023-03-18T00:22:43;98965.13;;;10.55;57.34
68859;BME280;55864;49.238;8.092;2023-03-18T00:24:45;98955.72;;;10.53;57.56
68859;BME280;55864;49.238;8.092;2023-03-18T00:26:46;98966.81;;;10.38;58.37
68859;BME280;55864;49.238;8.092;2023-03-18T00:28:46;98963.78;;;10.33;58.20
68859;BME280;55864;49.238;8.092;2023-03-18T00:30:47;98959.59;;;10.40;57.63
68859;BME280;55864;49.238;8.092;2023-03-18T00:32:48;98966.66;;;10.40;58.20
68859;BME280;55864;49.238;8.092;2023-03-18T00:34:49;98963.00;;;10.33;59.05
68859;BME280;55864;49.238;8.092;2023-03-18T00:36:49;98967.84;;;10.46;57.72
68859;BME280;55864;49.238;8.092;2023-03-18T00:38:52;98965.56;;;10.51;58.17
68859;BME280;55864;49.238;8.092;2023-03-18T00:40:54;98965.03;;;10.47;57.80
68859;BME280;55864;49.238;8.092;2023-03-18T00:42:55;98968.75;;;10.36;58.45
68859;BME280;55864;49.238;8.092;2023-03-18T00:44:56;98969.69;;;10.27;59.86
68859;BME280;55864;49.238;8.092;2023-03-18T00:46:56;98978.97;;;10.22;60.06
68859;BME280;55864;49.238;8.092;2023-03-18T00:48:58;98976.91;;;10.33;59.03
68859;BME280;55864;49.238;8.092;2023-03-18T00:50:59;98974.72;;;10.47;58.82
68859;BME280;55864;49.238;8.092;2023-03-18T00:52:59;98974.53;;;10.40;59.75
68859;BME280;55864;49.238;8.092;2023-03-18T00:55:00;98973.25;;;10.26;60.38
68859;BME280;55864;49.238;8.092;2023-03-18T00:57:03;98975.47;;;10.13;61.17
68859;BME280;55864;49.238;8.092;2023-03-18T00:59:05;98976.66;;;10.19;60.59
68859;BME280;55864;49.238;8.092;2023-03-18T01:01:06;98974.53;;;10.05;60.85
68859;BME280;55864;49.238;8.092;2023-03-18T01:03:08;98965.84;;;10.22;59.68
68859;BME280;55864;49.238;8.092;2023-03-18T01:05:10;98959.72;;;10.39;57.72
68859;BME280;55864;49.238;8.092;2023-03-18T01:07:11;98967.75;;;10.55;56.83
68859;BME280;55864;49.238;8.092;2023-03-18T01:09:11;98960.03;;;10.54;57.72
68859;BME280;55864;49.238;8.092;2023-03-18T01:11:13;98970.13;;;10.49;56.89
68859;BME280;55864;49.238;8.092;2023-03-18T01:13:15;98965.44;;;10.52;57.25
68859;BME280;55864;49.238;8.092;2023-03-18T01:15:17;98965.41;;;10.78;55.33
68859;BME280;55864;49.238;8.092;2023-03-18T01:17:18;98960.59;;;10.65;56.14
68859;BME280;55864;49.238;8.092;2023-03-18T01:19:19;98963.13;;;10.75;56.32
68859;BME280;55864;49.238;8.092;2023-03-18T01:21:20;98966.41;;;10.77;55.25
68859;BME280;55864;49.238;8.092;2023-03-18T01:23:30;98961.50;;;10.82;56.00
68859;BME280;55864;49.238;8.092;2023-03-18T01:25:31;98955.84;;;10.69;57.31
68859;BME280;55864;49.238;8.092;2023-03-18T01:27:31;98958.06;;;10.56;58.08
68859;BME280;55864;49.238;8.092;2023-03-18T01:29:35;98958.19;;;10.54;58.57
68859;BME280;55864;49.238;8.092;2023-03-18T01:31:36;98957.00;;;10.49;58.12
68859;BME280;55864;49.238;8.092;2023-03-18T01:33:41;98952.69;;;10.39;58.89
68859;BME280;55864;49.238;8.092;2023-03-18T01:35:41;98950.91;;;10.22;60.20
68859;BME280;55864;49.238;8.092;2023-03-18T01:37:42;98957.09;;;10.13;60.17
68859;BME280;55864;49.238;8.092;2023-03-18T01:39:46;98952.41;;;10.43;58.01
68859;BME280;55864;49.238;8.092;2023-03-18T01:41:53;98951.34;;;10.35;59.26
68859;BME280;55864;49.238;8.092;2023-03-18T01:44:02;98960.28;;;10.43;58.76
68859;BME280;55864;49.238;8.092;2023-03-18T01:46:34;98959.28;;;10.43;59.36
68859;BME280;55864;49.238;8.092;2023-03-18T01:48:37;98954.56;;;10.73;58.02
68859;BME280;55864;49.238;8.092;2023-03-18T01:50:41;98960.19;;;10.52;59.34
68859;BME280;55864;49.238;8.092;2023-03-18T01:52:43;98955.47;;;10.64;58.39
68859;BME280;55864;49.238;8.092;2023-03-18T01:54:51;98959.44;;;10.42;58.93
68859;BME280;55864;49.238;8.092;2023-03-18T01:56:53;98952.00;;;10.37;60.01
68859;BME280;55864;49.238;8.092;2023-03-18T01:58:56;98954.06;;;10.08;60.97
68859;BME280;55864;49.238;8.092;2023-03-18T02:01:00;98962.34;;;10.13;60.41
68859;BME280;55864;49.238;8.092;2023-03-18T02:03:03;98959.69;;;10.57;59.28
68859;BME280;55864;49.238;8.092;2023-03-18T02:05:06;98970.94;;;10.67;59.19
68859;BME280;55864;49.238;8.092;2023-03-18T02:07:12;98967.69;;;10.73;58.79
68859;BME280;55864;49.238;8.092;2023-03-18T02:09:13;98969.69;;;10.79;58.79
68859;BME280;55864;49.238;8.092;2023-03-18T02:11:15;98965.09;;;10.81;58.88
68859;BME280;55864;49.238;8.092;2023-03-18T02:13:16;98971.69;;;10.85;59.00
68859;BME280;55864;49.238;8.092;2023-03-18T02:15:19;98971.91;;;10.91;58.94
68859;BME280;55864;49.238;8.092;2023-03-18T02:17:23;98970.78;;;10.94;58.32
68859;BME280;55864;49.238;8.092;2023-03-18T02:19:34;98965.03;;;10.98;58.59
68859;BME280;55864;49.238;8.092;2023-03-18T02:21:44;98959.63;;;11.00;59.22
68859;BME280;55864;49.238;8.092;2023-03-18T02:23:54;98964.41;;;11.04;58.44
68859;BME280;55864;49.238;8.092;2023-03-18T02:26:03;98964.47;;;11.20;57.65
68859;BME280;55864;49.238;8.092;2023-03-18T02:28:10;98963.47;;;11.13;57.91
68859;BME280;55864;49.238;8.092;2023-03-18T02:30:15;98965.06;;;11.06;57.94
68859;BME280;55864;49.238;8.092;2023-03-18T02:32:19;98971.47;;;11.04;58.44
68859;BME280;55864;49.238;8.092;2023-03-18T02:34:22;98973.00;;;11.14;57.65
68859;BME280;55864;49.238;8.092;2023-03-18T02:36:26;98975.09;;;11.03;58.60
68859;BME280;55864;49.238;8.092;2023-03-18T02:38:28;98965.75;;;11.08;57.68
68859;BME280;55864;49.238;8.092;2023-03-18T02:40:31;98957.25;;;11.14;58.23
68859;BME280;55864;49.238;8.092;2023-03-18T02:42:32;98961.78;;;11.04;58.02
68859;BME280;55864;49.238;8.092;2023-03-18T02:44:39;98963.47;;;11.13;57.73
68859;BME280;55864;49.238;8.092;2023-03-18T02:47:01;98966.25;;;11.12;56.75
68859;BME280;55864;49.238;8.092;2023-03-18T02:49:05;98974.81;;;11.14;56.88
68859;BME280;55864;49.238;8.092;2023-03-18T02:51:06;98964.91;;;11.08;56.50
68859;BME280;55864;49.238;8.092;2023-03-18T02:53:10;98971.56;;;11.20;56.44
68859;BME280;55864;49.238;8.092;2023-03-18T02:55:10;98966.63;;;11.25;56.10
68859;BME280;55864;49.238;8.092;2023-03-18T02:57:11;98969.88;;;11.19;56.42
68859;BME280;55864;49.238;8.092;2023-03-18T02:59:19;98976.31;;;11.16;56.85
68859;BME280;55864;49.238;8.092;2023-03-18T03:01:21;98975.63;;;11.14;56.58
68859;BME280;55864;49.238;8.092;2023-03-18T03:03:22;98976.16;;;11.18;56.43
68859;BME280;55864;49.238;8.092;2023-03-18T03:05:23;98977.59;;;11.12;56.34
68859;BME280;55864;49.238;8.092;2023-03-18T03:07:25;98978.78;;;11.18;56.55
68859;BME280;55864;49.238;8.092;2023-03-18T03:09:26;98978.88;;;11.08;56.73
68859;BME280;55864;49.238;8.092;2023-03-18T03:11:27;98984.31;;;11.07;56.83
68859;BME280;55864;49.238;8.092;2023-03-18T03:13:33;98972.47;;;11.03;57.29
68859;BME280;55864;49.238;8.092;2023-03-18T03:15:34;98986.78;;;11.08;57.00
68859;BME280;55864;49.238;8.092;2023-03-18T03:17:36;98988.53;;;11.00;57.15
68859;BME280;55864;49.238;8.092;2023-03-18T03:19:37;98989.53;;;10.99;57.40
68859;BME280;55864;49.238;8.092;2023-03-18T03:21:38;98981.94;;;10.96;57.42
68859;BME280;55864;49.238;8.092;2023-03-18T03:23:39;98989.16;;;10.94;57.77
68859;BME280;55864;49.238;8.092;2023-03-18T03:25:41;98985.88;;;10.92;57.70
68859;BME280;55864;49.238;8.092;2023-03-18T03:27:42;98992.41;;;10.88;59.08
68859;BME280;55864;49.238;8.092;2023-03-18T03:29:42;98987.16;;;10.88;59.35
68859;BME280;55864;49.238;8.092;2023-03-18T03:31:43;98983.09;;;10.93;60.86
68859;BME280;55864;49.238;8.092;2023-03-18T03:33:45;98988.13;;;10.87;60.23
68859;BME280;55864;49.238;8.092;2023-03-18T03:35:46;98990.25;;;10.83;60.82
68859;BME280;55864;49.238;8.092;2023-03-18T03:37:46;98986.09;;;10.73;61.24
68859;BME280;55864;49.238;8.092;2023-03-18T03:39:47;98991.84;;;10.76;60.15
68859;BME280;55864;49.238;8.092;2023-03-18T03:41:48;98985.25;;;10.72;61.11
68859;BME280;55864;49.238;8.092;2023-03-18T03:43:49;98988.72;;;10.73;61.69
68859;BME280;55864;49.238;8.092;2023-03-18T03:45:50;98993.03;;;10.82;59.97
68859;BME280;55864;49.238;8.092;2023-03-18T03:47:51;98990.06;;;10.85;59.74
68859;BME280;55864;49.238;8.092;2023-03-18T03:49:53;98998.47;;;10.88;59.96
68859;BME280;55864;49.238;8.092;2023-03-18T03:51:53;99006.47;;;10.79;60.42
68859;BME280;55864;49.238;8.092;2023-03-18T03:53:56;99000.41;;;10.78;59.24
68859;BME280;55864;49.238;8.092;2023-03-18T03:55:57;98998.47;;;10.88;58.71
68859;BME280;55864;49.238;8.092;2023-03-18T03:57:58;98998.47;;;10.88;58.32
68859;BME280;55864;49.238;8.092;2023-03-18T04:00:00;98997.28;;;10.83;58.05
68859;BME280;55864;49.238;8.092;2023-03-18T04:02:20;99004.22;;;10.84;57.68
68859;BME280;55864;49.238;8.092;2023-03-18T04:04:20;98999.91;;;10.83;57.58
68859;BME280;55864;49.238;8.092;2023-03-18T04:06:22;98992.94;;;10.91;56.68
68859;BME280;55864;49.238;8.092;2023-03-18T04:08:31;98995.19;;;10.86;57.45
68859;BME280;55864;49.238;8.092;2023-03-18T04:10:32;98997.00;;;10.86;57.78
68859;BME280;55864;49.238;8.092;2023-03-18T04:12:33;99002.19;;;10.78;58.53
68859;BME280;55864;49.238;8.092;2023-03-18T04:14:35;98996.69;;;10.89;58.07
68859;BME280;55864;49.238;8.092;2023-03-18T04:16:36;98999.13;;;10.90;58.14
68859;BME280;55864;49.238;8.092;2023-03-18T04:18:37;98990.75;;;10.87;58.36
68859;BME280;55864;49.238;8.092;2023-03-18T04:20:38;98984.22;;;10.91;58.25
68859;BME280;55864;49.238;8.092;2023-03-18T04:22:52;98981.41;;;10.92;58.06
68859;BME280;55864;49.238;8.092;2023-03-18T04:24:55;98985.88;;;10.92;58.38
68859;BME280;55864;49.238;8.092;2023-03-18T04:26:57;98993.88;;;10.90;57.71
68859;BME280;55864;49.238;8.092;2023-03-18T04:28:57;98999.69;;;10.94;57.62
68859;BME280;55864;49.238;8.092;2023-03-18T04:30:58;98996.00;;;10.87;57.72
68859;BME280;55864;49.238;8.092;2023-03-18T04:32:59;99010.75;;;10.80;57.77
68859;BME280;55864;49.238;8.092;2023-03-18T04:35:00;99009.97;;;10.87;56.81
68859;BME280;55864;49.238;8.092;2023-03-18T04:37:01;99008.97;;;10.80;58.31
68859;BME280;55864;49.238;8.092;2023-03-18T04:39:05;99008.44;;;10.77;57.93
68859;BME280;55864;49.238;8.092;2023-03-18T04:41:06;99005.16;;;10.75;57.53
68859;BME280;55864;49.238;8.092;2023-03-18T04:43:07;99003.56;;;10.64;58.04
68859;BME280;55864;49.238;8.092;2023-03-18T04:45:08;99009.22;;;10.69;57.66
68859;BME280;55864;49.238;8.092;2023-03-18T04:47:11;99012.28;;;10.65;56.70
68859;BME280;55864;49.238;8.092;2023-03-18T04:49:12;99012.06;;;10.58;56.94
68859;BME280;55864;49.238;8.092;2023-03-18T04:51:13;99011.38;;;10.56;58.11
68859;BME280;55864;49.238;8.092;2023-03-18T04:53:14;99016.66;;;10.56;57.89
68859;BME280;55864;49.238;8.092;2023-03-18T04:55:16;99009.41;;;10.50;57.47
68859;BME280;55864;49.238;8.092;2023-03-18T04:57:16;99012.63;;;10.44;58.04
68859;BME280;55864;49.238;8.092;2023-03-18T04:59:23;99013.97;;;10.48;57.26
68859;BME280;55864;49.238;8.092;2023-03-18T05:01:25;99009.00;;;10.45;57.35
68859;BME280;55864;49.238;8.092;2023-03-18T05:03:26;99011.19;;;10.50;56.16
68859;BME280;55864;49.238;8.092;2023-03-18T05:05:27;99013.22;;;10.56;55.33
68859;BME280;55864;49.238;8.092;2023-03-18T05:07:28;99009.97;;;10.62;55.20
68859;BME280;55864;49.238;8.092;2023-03-18T05:09:34;99010.28;;;10.59;55.29
68859;BME280;55864;49.238;8.092;2023-03-18T05:11:37;99013.31;;;10.72;54.95
68859;BME280;55864;49.238;8.092;2023-03-18T05:13:47;99015.44;;;10.68;55.81
68859;BME280;55864;49.238;8.092;2023-03-18T05:15:50;99012.53;;;10.54;57.14
68859;BME280;55864;49.238;8.092;2023-03-18T05:17:51;99012.47;;;10.28;57.86
68859;BME280;55864;49.238;8.092;2023-03-18T05:19:52;99017.13;;;9.99;59.12
68859;BME280;55864;49.238;8.092;2023-03-18T05:21:55;99020.59;;;9.72;60.17
68859;BME280;55864;49.238;8.092;2023-03-18T05:23:55;99015.75;;;9.77;59.47
68859;BME280;55864;49.238;8.092;2023-03-18T05:25:56;99017.03;;;9.91;58.75
68859;BME280;55864;49.238;8.092;2023-03-18T05:28:01;99012.13;;;10.23;58.04
68859;BME280;55864;49.238;8.092;2023-03-18T05:30:11;99013.66;;;10.33;57.46
68859;BME280;55864;49.238;8.092;2023-03-18T05:32:22;99013.31;;;10.28;58.78
68859;BME280;55864;49.238;8.092;2023-03-18T05:34:29;99016.09;;;10.27;58.86
68859;BME280;55864;49.238;8.092;2023-03-18T05:36:29;99017.97;;;10.34;59.39
68859;BME280;55864;49.238;8.092;2023-03-18T05:38:37;99026.97;;;10.32;59.14
68859;BME280;55864;49.238;8.092;2023-03-18T05:40:37;99020.22;;;10.29;59.54
68859;BME280;55864;49.238;8.092;2023-03-18T05:42:44;99027.44;;;10.27;59.09
68859;BME280;55864;49.238;8.092;2023-03-18T05:44:47;99033.19;;;10.31;58.53
68859;BME280;55864;49.238;8.092;2023-03-18T05:46:51;99034.91;;;10.40;56.99
68859;BME280;55864;49.238;8.092;2023-03-18T05:49:06;99040.06;;;10.50;56.92
68859;BME280;55864;49.238;8.092;2023-03-18T05:51:17;99033.84;;;10.51;56.57
68859;BME280;55864;49.238;8.092;2023-03-18T05:53:18;99041.72;;;10.51;56.01
68859;BME280;55864;49.238;8.092;2023-03-18T05:55:21;99040.94;;;10.58;56.24
68859;BME280;55864;49.238;8.092;2023-03-18T05:57:22;99045.75;;;10.63;55.79
68859;BME280;55864;49.238;8.092;2023-03-18T05:59:27;99045.00;;;10.53;55.87
68859;BME280;55864;49.238;8.092;2023-03-18T06:01:33;99048.47;;;10.53;56.29
68859;BME280;55864;49.238;8.092;2023-03-18T06:03:34;99048.41;;;10.45;57.30
68859;BME280;55864;49.238;8.092;2023-03-18T06:05:35;99046.75;;;10.44;57.25
68859;BME280;55864;49.238;8.092;2023-03-18T06:07:36;99051.03;;;10.45;57.86
68859;BME280;55864;49.238;8.092;2023-03-18T06:09:36;99051.63;;;10.39;58.30
68859;BME280;55864;49.238;8.092;2023-03-18T06:11:37;99052.69;;;10.46;56.51
68859;BME280;55864;49.238;8.092;2023-03-18T06:13:39;99055.84;;;10.32;57.38
68859;BME280;55864;49.238;8.092;2023-03-18T06:15:40;99057.19;;;10.36;57.99
68859;BME280;55864;49.238;8.092;2023-03-18T06:17:42;99058.09;;;10.27;58.45
68859;BME280;55864;49.238;8.092;2023-03-18T06:19:42;99063.63;;;10.41;57.08
68859;BME280;55864;49.238;8.092;2023-03-18T06:21:43;99058.22;;;10.43;57.08
68859;BME280;55864;49.238;8.092;2023-03-18T06:23:43;99056.66;;;10.50;56.37
68859;BME280;55864;49.238;8.092;2023-03-18T06:25:44;99061.25;;;10.48;56.45
68859;BME280;55864;49.238;8.092;2023-03-18T06:27:45;99060.09;;;10.51;55.46
68859;BME280;55864;49.238;8.092;2023-03-18T06:29:46;99054.16;;;10.49;54.75
68859;BME280;55864;49.238;8.092;2023-03-18T06:31:50;99062.28;;;10.55;55.06
68859;BME280;55864;49.238;8.092;2023-03-18T06:33:57;99063.13;;;10.56;55.19
68859;BME280;55864;49.238;8.092;2023-03-18T06:35:58;99058.16;;;10.53;55.64
68859;BME280;55864;49.238;8.092;2023-03-18T06:37:59;99058.91;;;10.45;57.27
68859;BME280;55864;49.238;8.092;2023-03-18T06:40:00;99063.94;;;10.38;57.90
68859;BME280;55864;49.238;8.092;2023-03-18T06:42:00;99057.78;;;10.30;57.51
68859;BME280;55864;49.238;8.092;2023-03-18T06:44:05;99064.53;;;10.32;57.98
68859;BME280;55864;49.238;8.092;2023-03-18T06:46:06;99051.56;;;10.31;57.42
68859;BME280;55864;49.238;8.092;2023-03-18T06:48:07;99053.88;;;10.34;57.76
68859;BME280;55864;49.238;8.092;2023-03-18T06:50:11;99052.53;;;10.30;56.61
68859;BME280;55864;49.238;8.092;2023-03-18T06:52:12;99057.00;;;10.02;58.67
68859;BME280;55864;49.238;8.092;2023-03-18T06:54:15;99056.69;;;10.05;56.68
68859;BME280;55864;49.238;8.092;2023-03-18T06:56:15;99061.47;;;9.92;57.94
68859;BME280;55864;49.238;8.092;2023-03-18T06:58:42;99061.31;;;10.21;56.27
68859;BME280;55864;49.238;8.092;2023-03-18T07:00:43;99068.22;;;10.57;54.55
68859;BME280;55864;49.238;8.092;2023-03-18T07:02:48;99068.47;;;10.72;54.79
68859;BME280;55864;49.238;8.092;2023-03-18T07:04:50;99058.34;;;10.77;54.67
68859;BME280;55864;49.238;8.092;2023-03-18T07:06:52;99062.84;;;10.84;54.42
68859;BME280;55864;49.238;8.092;2023-03-18T07:08:53;99059.97;;;10.95;53.49
68859;BME280;55864;49.238;8.092;2023-03-18T07:10:53;99061.69;;;10.61;55.84
68859;BME280;55864;49.238;8.092;2023-03-18T07:12:54;99064.38;;;10.52;55.44
68859;BME280;55864;49.238;8.092;2023-03-18T07:14:55;99066.81;;;10.27;56.55
68859;BME280;55864;49.238;8.092;2023-03-18T07:16:56;99063.47;;;10.61;54.43
68859;BME280;55864;49.238;8.092;2023-03-18T07:18:56;99060.44;;;10.73;53.54
68859;BME280;55864;49.238;8.092;2023-03-18T07:20:58;99072.72;;;10.47;56.38
68859;BME280;55864;49.238;8.092;2023-03-18T07:23:01;99073.84;;;10.27;56.82
68859;BME280;55864;49.238;8.092;2023-03-18T07:25:02;99076.25;;;10.56;54.38
68859;BME280;55864;49.238;8.092;2023-03-18T07:27:02;99082.03;;;10.85;53.19
68859;BME280;55864;49.238;8.092;2023-03-18T07:29:06;99082.88;;;10.68;54.80
68859;BME280;55864;49.238;8.092;2023-03-18T07:31:07;99079.56;;;10.83;54.56
68859;BME280;55864;49.238;8.092;2023-03-18T07:33:07;99077.78;;;10.84;53.29
68859;BME280;55864;49.238;8.092;2023-03-18T07:35:08;99082.94;;;10.93;52.74
68859;BME280;55864;49.238;8.092;2023-03-18T07:37:09;99083.03;;;11.09;51.90
68859;BME280;55864;49.238;8.092;2023-03-18T07:39:11;99086.72;;;11.16;51.54
68859;BME280;55864;49.238;8.092;2023-03-18T07:41:11;99088.69;;;11.22;51.37
68859;BME280;55864;49.238;8.092;2023-03-18T07:43:12;99087.97;;;11.38;52.19
68859;BME280;55864;49.238;8.092;2023-03-18T07:45:12;99085.91;;;11.50;53.12
68859;BME280;55864;49.238;8.092;2023-03-18T07:47:13;99087.41;;;11.52;53.08
68859;BME280;55864;49.238;8.092;2023-03-18T07:49:13;99086.69;;;11.76;52.45
68859;BME280;55864;49.238;8.092;2023-03-18T07:51:14;99083.47;;;11.90;52.37
68859;BME280;55864;49.238;8.092;2023-03-18T07:53:15;99084.44;;;11.89;52.26
68859;BME280;55864;49.238;8.092;2023-03-18T07:55:17;99086.66;;;12.01;51.47
68859;BME280;55864;49.238;8.092;2023-03-18T07:57:17;99093.41;;;12.12;49.88
68859;BME280;55864;49.238;8.092;2023-03-18T07:59:18;99090.28;;;12.08;50.33
68859;BME280;55864;49.238;8.092;2023-03-18T08:01:19;99092.63;;;12.27;48.87
68859;BME280;55864;49.238;8.092;2023-03-18T08:03:19;99090.81;;;12.36;47.93
68859;BME280;55864;49.238;8.092;2023-03-18T08:05:20;99094.59;;;12.42;47.25
68859;BME280;55864;49.238;8.092;2023-03-18T08:07:21;99100.72;;;12.42;47.40
68859;BME280;55864;49.238;8.092;2023-03-18T08:09:21;99109.28;;;12.44;46.62
68859;BME280;55864;49.238;8.092;2023-03-18T08:11:23;99103.31;;;12.34;48.17
68859;BME280;55864;49.238;8.092;2023-03-18T08:13:24;99109.75;;;12.40;48.03
68859;BME280;55864;49.238;8.092;2023-03-18T08:15:24;99101.06;;;12.71;46.53
68859;BME280;55864;49.238;8.092;2023-03-18T08:17:25;99102.88;;;12.79;47.44
68859;BME280;55864;49.238;8.092;2023-03-18T08:19:25;99103.56;;;13.05;46.53
68859;BME280;55864;49.238;8.092;2023-03-18T08:21:26;99110.28;;;12.99;47.78
68859;BME280;55864;49.238;8.092;2023-03-18T08:23:26;99105.66;;;13.17;48.45
68859;BME280;55864;49.238;8.092;2023-03-18T08:25:27;99106.34;;;13.11;46.89
68859;BME280;55864;49.238;8.092;2023-03-18T08:27:29;99095.25;;;13.40;45.16
68859;BME280;55864;49.238;8.092;2023-03-18T08:29:29;99105.78;;;13.48;46.18
68859;BME280;55864;49.238;8.092;2023-03-18T08:31:30;99101.06;;;13.74;47.08
68859;BME280;55864;49.238;8.092;2023-03-18T08:33:31;99105.81;;;13.87;45.13
68859;BME280;55864;49.238;8.092;2023-03-18T08:35:31;99106.13;;;13.92;45.02
68859;BME280;55864;49.238;8.092;2023-03-18T08:37:32;99106.91;;;14.00;45.40
68859;BME280;55864;49.238;8.092;2023-03-18T08:39:32;99109.16;;;13.81;46.50
68859;BME280;55864;49.238;8.092;2023-03-18T08:41:33;99108.53;;;14.09;45.32
68859;BME280;55864;49.238;8.092;2023-03-18T08:43:35;99108.13;;;14.21;45.09
68859;BME280;55864;49.238;8.092;2023-03-18T08:45:38;99109.94;;;14.20;45.92
68859;BME280;55864;49.238;8.092;2023-03-18T08:47:39;99106.41;;;14.36;44.78
68859;BME280;55864;49.238;8.092;2023-03-18T08:49:40;99106.41;;;14.36;49.38
68859;BME280;55864;49.238;8.092;2023-03-18T08:51:40;99113.66;;;14.42;46.29
68859;BME280;55864;49.238;8.092;2023-03-18T08:53:44;99105.78;;;14.79;45.88
68859;BME280;55864;49.238;8.092;2023-03-18T08:55:45;99104.19;;;14.70;47.53
68859;BME280;55864;49.238;8.092;2023-03-18T08:57:46;99100.75;;;14.84;48.02
68859;BME280;55864;49.238;8.092;2023-03-18T08:59:48;99102.06;;;14.88;47.65
68859;BME280;55864;49.238;8.092;2023-03-18T09:01:48;99100.06;;;14.90;45.79
68859;BME280;55864;49.238;8.092;2023-03-18T09:03:50;99099.56;;;15.09;45.78
68859;BME280;55864;49.238;8.092;2023-03-18T09:05:51;99095.44;;;15.06;44.26
68859;BME280;55864;49.238;8.092;2023-03-18T09:07:51;99102.59;;;15.06;44.36
68859;BME280;55864;49.238;8.092;2023-03-18T09:09:52;99097.16;;;14.99;44.90
68859;BME280;55864;49.238;8.092;2023-03-18T09:11:53;99093.63;;;15.07;45.89
68859;BME280;55864;49.238;8.092;2023-03-18T09:13:55;99090.09;;;15.29;44.92
68859;BME280;55864;49.238;8.092;2023-03-18T09:15:57;99086.47;;;15.30;44.93
68859;BME280;55864;49.238;8.092;2023-03-18T09:17:57;99083.44;;;15.19;40.85
68859;BME280;55864;49.238;8.092;2023-03-18T09:19:58;99082.06;;;15.08;41.63
68859;BME280;55864;49.238;8.092;2023-03-18T09:21:58;99076.97;;;15.21;43.69
68859;BME280;55864;49.238;8.092;2023-03-18T09:23:59;99076.66;;;15.16;45.78
68859;BME280;55864;49.238;8.092;2023-03-18T09:25:59;99066.19;;;15.08;45.66
68859;BME280;55864;49.238;8.092;2023-03-18T09:28:01;99074.66;;;15.03;45.17
68859;BME280;55864;49.238;8.092;2023-03-18T09:30:02;99073.38;;;15.14;46.13
68859;BME280;55864;49.238;8.092;2023-03-18T09:32:04;99066.66;;;15.12;44.97
68859;BME280;55864;49.238;8.092;2023-03-18T09:34:05;99075.09;;;15.07;46.17
68859;BME280;55864;49.238;8.092;2023-03-18T09:36:06;99072.00;;;15.18;47.30
68859;BME280;55864;49.238;8.092;2023-03-18T09:38:08;99060.34;;;15.13;45.73
68859;BME280;55864;49.238;8.092;2023-03-18T09:40:14;99069.19;;;15.05;45.03
68859;BME280;55864;49.238;8.092;2023-03-18T09:42:40;99072.47;;;15.07;45.26
68859;BME280;55864;49.238;8.092;2023-03-18T09:44:46;99061.63;;;15.17;46.00
68859;BME280;55864;49.238;8.092;2023-03-18T09:47:09;99065.19;;;15.24;44.00
68859;BME280;55864;49.238;8.092;2023-03-18T09:49:25;99067.03;;;15.23;44.28
68859;BME280;55864;49.238;8.092;2023-03-18T09:51:37;99069.53;;;15.68;43.20
68859;BME280;55864;49.238;8.092;2023-03-18T09:53:44;99070.66;;;15.37;43.48
68859;BME280;55864;49.238;8.092;2023-03-18T09:55:48;99065.56;;;15.21;44.14
68859;BME280;55864;49.238;8.092;2023-03-18T09:57:53;99060.16;;;15.14;45.65
68859;BME280;55864;49.238;8.092;2023-03-18T09:59:59;99063.94;;;15.20;46.57
68859;BME280;55864;49.238;8.092;2023-03-18T10:02:03;99066.84;;;15.25;45.71
68859;BME280;55864;49.238;8.092;2023-03-18T10:04:14;99059.16;;;15.30;45.19
68859;BME280;55864;49.238;8.092;2023-03-18T10:06:20;99052.44;;;15.27;45.05
68859;BME280;55864;49.238;8.092;2023-03-18T10:08:30;99056.47;;;15.67;44.90
68859;BME280;55864;49.238;8.092;2023-03-18T10:10:37;99057.19;;;16.11;43.81
68859;BME280;55864;49.238;8.092;2023-03-18T10:12:38;99053.94;;;15.94;44.13
68859;BME280;55864;49.238;8.092;2023-03-18T10:14:44;99053.13;;;15.94;45.41
68859;BME280;55864;49.238;8.092;2023-03-18T10:16:55;99063.56;;;15.81;46.15
68859;BME280;55864;49.238;8.092;2023-03-18T10:18:58;99062.25;;;16.06;45.19
68859;BME280;55864;49.238;8.092;2023-03-18T10:21:12;99070.94;;;16.00;46.26
68859;BME280;55864;49.238;8.092;2023-03-18T10:23:28;99068.50;;;15.84;46.75
68859;BME280;55864;49.238;8.092;2023-03-18T10:25:34;99078.53;;;15.88;43.74
68859;BME280;55864;49.238;8.092;2023-03-18T10:27:44;99083.50;;;15.62;45.18
68859;BME280;55864;49.238;8.092;2023-03-18T10:29:57;99077.44;;;15.54;45.41
68859;BME280;55864;49.238;8.092;2023-03-18T10:32:08;99067.78;;;15.46;45.02
68859;BME280;55864;49.238;8.092;2023-03-18T10:34:19;99065.69;;;15.56;45.24
68859;BME280;55864;49.238;8.092;2023-03-18T10:36:26;99064.78;;;15.49;44.77
68859;BME280;55864;49.238;8.092;2023-03-18T10:38:33;99065.69;;;15.56;44.83
68859;BME280;55864;49.238;8.092;2023-03-18T10:40:39;99065.31;;;15.74;45.40
68859;BME280;55864;49.238;8.092;2023-03-18T10:42:40;99074.16;;;16.17;44.63
68859;BME280;55864;49.238;8.092;2023-03-18T10:44:41;99076.22;;;16.36;43.68
68859;BME280;55864;49.238;8.092;2023-03-18T10:46:43;99079.91;;;16.20;44.06
68859;BME280;55864;49.238;8.092;2023-03-18T10:48:47;99072.09;;;15.97;44.00
68859;BME280;55864;49.238;8.092;2023-03-18T10:50:55;99069.56;;;16.04;43.53